sensor_id;sensor_type;location;lat;lon;timestamp;P1;durP1;ratioP1;P2;durP2;ratioP2
38427;SDS011;24211;49.980;19.776;2022-10-22T00:00:59;36.97;;;17.98;;
38427;SDS011;24211;49.980;19.776;2022-10-22T00:03:38;36.83;;;17.90;;
38427;SDS011;24211;49.980;19.776;2022-10-22T00:06:05;40.67;;;19.35;;
38427;SDS011;24211;49.980;19.776;2022-10-22T00:08:33;41.80;;;20.00;;
38427;SDS011;24211;49.980;19.776;2022-10-22T00:11:14;36.63;;;18.55;;
38427;SDS011;24211;49.980;19.776;2022-10-22T00:13:45;42.38;;;18.92;;
38427;SDS011;24211;49.980;19.776;2022-10-22T00:16:17;39.60;;;19.30;;
38427;SDS011;24211;49.980;19.776;2022-10-22T00:18:44;45.28;;;20.70;;
38427;SDS011;24211;49.980;19.776;2022-10-22T00:21:11;63.17;;;30.65;;
38427;SDS011;24211;49.980;19.776;2022-10-22T00:23:39;47.67;;;22.85;;
38427;SDS011;24211;49.980;19.776;2022-10-22T00:26:08;46.83;;;22.13;;
38427;SDS011;24211;49.980;19.776;2022-10-22T00:28:37;46.83;;;21.75;;
38427;SDS011;24211;49.980;19.776;2022-10-22T00:31:04;40.42;;;19.73;;
38427;SDS011;24211;49.980;19.776;2022-10-22T00:33:32;37.38;;;18.90;;
38427;SDS011;24211;49.980;19.776;2022-10-22T00:35:59;36.60;;;19.20;;
38427;SDS011;24211;49.980;19.776;2022-10-22T00:38:27;38.22;;;19.00;;
38427;SDS011;24211;49.980;19.776;2022-10-22T00:40:54;38.00;;;17.73;;
38427;SDS011;24211;49.980;19.776;2022-10-22T00:43:22;38.22;;;19.15;;
38427;SDS011;24211;49.980;19.776;2022-10-22T00:45:49;38.13;;;18.48;;
38427;SDS011;24211;49.980;19.776;2022-10-22T00:51:02;39.70;;;18.30;;
38427;SDS011;24211;49.980;19.776;2022-10-22T00:53:38;38.33;;;17.67;;
38427;SDS011;24211;49.980;19.776;2022-10-22T00:56:13;37.70;;;17.80;;
38427;SDS011;24211;49.980;19.776;2022-10-22T00:58:42;36.63;;;17.27;;
38427;SDS011;24211;49.980;19.776;2022-10-22T01:01:16;36.08;;;17.48;;
38427;SDS011;24211;49.980;19.776;2022-10-22T01:03:48;34.50;;;17.40;;
38427;SDS011;24211;49.980;19.776;2022-10-22T01:06:26;36.15;;;17.48;;
38427;SDS011;24211;49.980;19.776;2022-10-22T01:11:49;39.45;;;18.50;;
38427;SDS011;24211;49.980;19.776;2022-10-22T01:14:46;37.20;;;17.33;;
38427;SDS011;24211;49.980;19.776;2022-10-22T01:20:56;33.70;;;16.27;;
38427;SDS011;24211;49.980;19.776;2022-10-22T01:29:47;30.35;;;15.65;;
38427;SDS011;24211;49.980;19.776;2022-10-22T01:32:32;31.75;;;14.98;;
38427;SDS011;24211;49.980;19.776;2022-10-22T01:35:49;33.40;;;14.57;;
38427;SDS011;24211;49.980;19.776;2022-10-22T01:38:15;33.40;;;15.77;;
38427;SDS011;24211;49.980;19.776;2022-10-22T01:40:47;32.30;;;15.40;;
38427;SDS011;24211;49.980;19.776;2022-10-22T01:43:17;32.72;;;15.32;;
38427;SDS011;24211;49.980;19.776;2022-10-22T01:45:46;27.52;;;14.10;;
38427;SDS011;24211;49.980;19.776;2022-10-22T01:51:43;29.33;;;15.13;;
38427;SDS011;24211;49.980;19.776;2022-10-22T01:54:46;27.35;;;14.00;;
38427;SDS011;24211;49.980;19.776;2022-10-22T01:57:32;31.27;;;14.18;;
38427;SDS011;24211;49.980;19.776;2022-10-22T02:00:13;31.05;;;14.32;;
38427;SDS011;24211;49.980;19.776;2022-10-22T02:02:55;30.23;;;14.32;;
38427;SDS011;24211;49.980;19.776;2022-10-22T02:05:46;28.30;;;13.95;;
38427;SDS011;24211;49.980;19.776;2022-10-22T02:08:20;31.10;;;14.43;;
38427;SDS011;24211;49.980;19.776;2022-10-22T02:10:52;28.52;;;14.20;;
38427;SDS011;24211;49.980;19.776;2022-10-22T02:13:56;29.10;;;14.30;;
38427;SDS011;24211;49.980;19.776;2022-10-22T02:16:42;28.45;;;14.25;;
38427;SDS011;24211;49.980;19.776;2022-10-22T02:19:23;28.83;;;14.68;;
38427;SDS011;24211;49.980;19.776;2022-10-22T02:22:08;30.08;;;15.57;;
38427;SDS011;24211;49.980;19.776;2022-10-22T02:24:36;32.30;;;14.70;;
38427;SDS011;24211;49.980;19.776;2022-10-22T02:28:08;32.03;;;14.85;;
38427;SDS011;24211;49.980;19.776;2022-10-22T02:30:13;26.02;;;13.80;;
38427;SDS011;24211;49.980;19.776;2022-10-22T02:32:55;28.92;;;14.57;;
38427;SDS011;24211;49.980;19.776;2022-10-22T02:35:46;27.85;;;13.88;;
38427;SDS011;24211;49.980;19.776;2022-10-22T02:38:16;31.17;;;14.48;;
38427;SDS011;24211;49.980;19.776;2022-10-22T02:40:45;28.92;;;14.13;;
38427;SDS011;24211;49.980;19.776;2022-10-22T02:43:13;27.23;;;13.85;;
38427;SDS011;24211;49.980;19.776;2022-10-22T02:45:40;30.85;;;15.15;;
38427;SDS011;24211;49.980;19.776;2022-10-22T02:48:07;31.50;;;14.65;;
38427;SDS011;24211;49.980;19.776;2022-10-22T02:50:35;27.88;;;14.23;;
38427;SDS011;24211;49.980;19.776;2022-10-22T02:53:03;29.33;;;13.98;;
38427;SDS011;24211;49.980;19.776;2022-10-22T02:55:30;30.40;;;14.55;;
38427;SDS011;24211;49.980;19.776;2022-10-22T02:57:57;32.95;;;16.40;;
38427;SDS011;24211;49.980;19.776;2022-10-22T03:00:24;30.80;;;15.52;;
38427;SDS011;24211;49.980;19.776;2022-10-22T03:02:52;34.42;;;15.90;;
38427;SDS011;24211;49.980;19.776;2022-10-22T03:05:19;31.95;;;15.23;;
38427;SDS011;24211;49.980;19.776;2022-10-22T03:07:46;30.13;;;15.00;;
38427;SDS011;24211;49.980;19.776;2022-10-22T03:10:13;29.08;;;14.40;;
38427;SDS011;24211;49.980;19.776;2022-10-22T03:12:41;28.20;;;14.45;;
38427;SDS011;24211;49.980;19.776;2022-10-22T03:15:08;29.02;;;14.50;;
38427;SDS011;24211;49.980;19.776;2022-10-22T03:17:36;27.30;;;13.70;;
38427;SDS011;24211;49.980;19.776;2022-10-22T03:20:04;25.65;;;14.10;;
38427;SDS011;24211;49.980;19.776;2022-10-22T03:22:32;30.45;;;14.60;;
38427;SDS011;24211;49.980;19.776;2022-10-22T03:25:04;27.63;;;13.63;;
38427;SDS011;24211;49.980;19.776;2022-10-22T03:27:38;26.95;;;13.75;;
38427;SDS011;24211;49.980;19.776;2022-10-22T03:30:07;28.38;;;13.07;;
38427;SDS011;24211;49.980;19.776;2022-10-22T03:32:36;25.75;;;13.50;;
38427;SDS011;24211;49.980;19.776;2022-10-22T03:35:03;25.90;;;13.02;;
38427;SDS011;24211;49.980;19.776;2022-10-22T03:37:31;26.42;;;13.27;;
38427;SDS011;24211;49.980;19.776;2022-10-22T03:40:03;23.58;;;13.00;;
38427;SDS011;24211;49.980;19.776;2022-10-22T03:42:33;24.33;;;13.63;;
38427;SDS011;24211;49.980;19.776;2022-10-22T03:45:00;23.95;;;12.50;;
38427;SDS011;24211;49.980;19.776;2022-10-22T03:47:28;23.50;;;12.38;;
38427;SDS011;24211;49.980;19.776;2022-10-22T03:49:55;21.85;;;12.55;;
38427;SDS011;24211;49.980;19.776;2022-10-22T03:52:22;23.67;;;12.38;;
38427;SDS011;24211;49.980;19.776;2022-10-22T03:54:49;24.63;;;12.05;;
38427;SDS011;24211;49.980;19.776;2022-10-22T03:57:17;23.92;;;12.50;;
38427;SDS011;24211;49.980;19.776;2022-10-22T03:59:44;26.10;;;13.13;;
38427;SDS011;24211;49.980;19.776;2022-10-22T04:02:12;26.05;;;12.70;;
38427;SDS011;24211;49.980;19.776;2022-10-22T04:04:40;25.70;;;12.90;;
38427;SDS011;24211;49.980;19.776;2022-10-22T04:07:07;24.00;;;12.23;;
38427;SDS011;24211;49.980;19.776;2022-10-22T04:09:34;24.63;;;12.00;;
38427;SDS011;24211;49.980;19.776;2022-10-22T04:12:02;21.58;;;11.23;;
38427;SDS011;24211;49.980;19.776;2022-10-22T04:14:34;27.60;;;11.77;;
38427;SDS011;24211;49.980;19.776;2022-10-22T04:17:03;22.70;;;12.05;;
38427;SDS011;24211;49.980;19.776;2022-10-22T04:19:30;25.25;;;12.63;;
38427;SDS011;24211;49.980;19.776;2022-10-22T04:21:58;25.02;;;12.68;;
38427;SDS011;24211;49.980;19.776;2022-10-22T04:24:26;24.70;;;12.30;;
38427;SDS011;24211;49.980;19.776;2022-10-22T04:26:57;26.67;;;12.88;;
38427;SDS011;24211;49.980;19.776;2022-10-22T04:29:25;27.70;;;12.88;;
38427;SDS011;24211;49.980;19.776;2022-10-22T04:31:52;24.90;;;12.38;;
38427;SDS011;24211;49.980;19.776;2022-10-22T04:34:20;26.60;;;12.65;;
38427;SDS011;24211;49.980;19.776;2022-10-22T04:36:47;23.80;;;12.10;;
38427;SDS011;24211;49.980;19.776;2022-10-22T04:39:14;27.30;;;13.10;;
38427;SDS011;24211;49.980;19.776;2022-10-22T04:41:41;25.23;;;12.32;;
38427;SDS011;24211;49.980;19.776;2022-10-22T04:44:08;22.83;;;11.55;;
38427;SDS011;24211;49.980;19.776;2022-10-22T04:46:42;22.83;;;11.43;;
38427;SDS011;24211;49.980;19.776;2022-10-22T04:49:10;23.27;;;12.13;;
38427;SDS011;24211;49.980;19.776;2022-10-22T04:51:37;25.50;;;11.95;;
38427;SDS011;24211;49.980;19.776;2022-10-22T04:54:04;23.45;;;12.13;;
38427;SDS011;24211;49.980;19.776;2022-10-22T04:56:31;21.13;;;11.43;;
38427;SDS011;24211;49.980;19.776;2022-10-22T04:58:59;23.50;;;12.30;;
38427;SDS011;24211;49.980;19.776;2022-10-22T05:01:33;24.83;;;12.20;;
38427;SDS011;24211;49.980;19.776;2022-10-22T05:04:10;24.30;;;12.18;;
38427;SDS011;24211;49.980;19.776;2022-10-22T05:06:41;26.40;;;12.48;;
38427;SDS011;24211;49.980;19.776;2022-10-22T05:09:13;21.77;;;11.90;;
38427;SDS011;24211;49.980;19.776;2022-10-22T05:11:44;23.92;;;11.95;;
38427;SDS011;24211;49.980;19.776;2022-10-22T05:14:16;24.63;;;11.70;;
38427;SDS011;24211;49.980;19.776;2022-10-22T05:16:47;22.67;;;11.25;;
38427;SDS011;24211;49.980;19.776;2022-10-22T05:19:19;23.08;;;12.05;;
38427;SDS011;24211;49.980;19.776;2022-10-22T05:21:51;25.00;;;12.20;;
38427;SDS011;24211;49.980;19.776;2022-10-22T05:24:22;24.88;;;12.63;;
38427;SDS011;24211;49.980;19.776;2022-10-22T05:26:50;23.63;;;12.20;;
38427;SDS011;24211;49.980;19.776;2022-10-22T05:29:19;24.60;;;13.02;;
38427;SDS011;24211;49.980;19.776;2022-10-22T05:31:47;24.27;;;13.35;;
38427;SDS011;24211;49.980;19.776;2022-10-22T05:34:15;23.65;;;11.90;;
38427;SDS011;24211;49.980;19.776;2022-10-22T05:36:43;24.42;;;12.15;;
38427;SDS011;24211;49.980;19.776;2022-10-22T05:39:10;23.80;;;12.30;;
38427;SDS011;24211;49.980;19.776;2022-10-22T05:41:38;22.83;;;12.10;;
38427;SDS011;24211;49.980;19.776;2022-10-22T05:44:05;25.40;;;13.10;;
38427;SDS011;24211;49.980;19.776;2022-10-22T05:46:34;25.73;;;13.38;;
38427;SDS011;24211;49.980;19.776;2022-10-22T05:49:03;24.30;;;12.80;;
38427;SDS011;24211;49.980;19.776;2022-10-22T05:51:33;23.70;;;12.75;;
38427;SDS011;24211;49.980;19.776;2022-10-22T05:54:03;24.77;;;13.00;;
38427;SDS011;24211;49.980;19.776;2022-10-22T05:56:34;24.10;;;12.60;;
38427;SDS011;24211;49.980;19.776;2022-10-22T05:59:02;24.63;;;12.32;;
38427;SDS011;24211;49.980;19.776;2022-10-22T06:01:31;28.63;;;14.00;;
38427;SDS011;24211;49.980;19.776;2022-10-22T06:04:02;28.95;;;14.45;;
38427;SDS011;24211;49.980;19.776;2022-10-22T06:09:11;29.73;;;15.10;;
38427;SDS011;24211;49.980;19.776;2022-10-22T06:11:48;29.67;;;14.27;;
38427;SDS011;24211;49.980;19.776;2022-10-22T06:14:16;27.80;;;13.27;;
38427;SDS011;24211;49.980;19.776;2022-10-22T06:16:45;27.30;;;14.07;;
38427;SDS011;24211;49.980;19.776;2022-10-22T06:19:13;27.55;;;13.98;;
38427;SDS011;24211;49.980;19.776;2022-10-22T06:21:43;28.98;;;14.32;;
38427;SDS011;24211;49.980;19.776;2022-10-22T06:24:11;27.02;;;13.45;;
38427;SDS011;24211;49.980;19.776;2022-10-22T06:26:39;27.73;;;12.88;;
38427;SDS011;24211;49.980;19.776;2022-10-22T06:29:07;24.38;;;13.18;;
38427;SDS011;24211;49.980;19.776;2022-10-22T06:31:35;25.10;;;13.10;;
38427;SDS011;24211;49.980;19.776;2022-10-22T06:34:04;26.13;;;13.63;;
38427;SDS011;24211;49.980;19.776;2022-10-22T06:36:34;26.70;;;14.07;;
38427;SDS011;24211;49.980;19.776;2022-10-22T06:39:03;27.55;;;14.73;;
38427;SDS011;24211;49.980;19.776;2022-10-22T06:41:31;28.95;;;14.93;;
38427;SDS011;24211;49.980;19.776;2022-10-22T06:43:58;32.45;;;16.05;;
38427;SDS011;24211;49.980;19.776;2022-10-22T06:46:26;29.88;;;16.02;;
38427;SDS011;24211;49.980;19.776;2022-10-22T06:48:58;29.83;;;15.95;;
38427;SDS011;24211;49.980;19.776;2022-10-22T06:51:28;31.60;;;14.73;;
38427;SDS011;24211;49.980;19.776;2022-10-22T06:53:56;33.45;;;16.17;;
38427;SDS011;24211;49.980;19.776;2022-10-22T06:56:26;31.67;;;15.93;;
38427;SDS011;24211;49.980;19.776;2022-10-22T06:58:55;31.15;;;15.70;;
38427;SDS011;24211;49.980;19.776;2022-10-22T07:01:28;29.50;;;15.27;;
38427;SDS011;24211;49.980;19.776;2022-10-22T07:03:58;30.65;;;15.50;;
38427;SDS011;24211;49.980;19.776;2022-10-22T07:06:26;33.25;;;15.93;;
38427;SDS011;24211;49.980;19.776;2022-10-22T07:08:55;28.25;;;14.85;;
38427;SDS011;24211;49.980;19.776;2022-10-22T07:11:26;28.73;;;14.65;;
38427;SDS011;24211;49.980;19.776;2022-10-22T07:13:58;28.35;;;14.55;;
38427;SDS011;24211;49.980;19.776;2022-10-22T07:16:26;29.73;;;14.07;;
38427;SDS011;24211;49.980;19.776;2022-10-22T07:18:58;27.15;;;13.90;;
38427;SDS011;24211;49.980;19.776;2022-10-22T07:21:30;25.33;;;13.18;;
38427;SDS011;24211;49.980;19.776;2022-10-22T07:23:57;24.83;;;12.77;;
38427;SDS011;24211;49.980;19.776;2022-10-22T07:26:25;25.65;;;12.98;;
38427;SDS011;24211;49.980;19.776;2022-10-22T07:28:58;29.73;;;14.60;;
38427;SDS011;24211;49.980;19.776;2022-10-22T07:31:27;30.55;;;15.05;;
38427;SDS011;24211;49.980;19.776;2022-10-22T07:33:54;28.52;;;14.38;;
38427;SDS011;24211;49.980;19.776;2022-10-22T07:36:23;24.58;;;13.25;;
38427;SDS011;24211;49.980;19.776;2022-10-22T07:38:57;25.48;;;13.32;;
38427;SDS011;24211;49.980;19.776;2022-10-22T07:41:26;26.83;;;13.38;;
38427;SDS011;24211;49.980;19.776;2022-10-22T07:43:56;24.65;;;13.10;;
38427;SDS011;24211;49.980;19.776;2022-10-22T07:46:24;24.55;;;12.85;;
38427;SDS011;24211;49.980;19.776;2022-10-22T07:48:52;25.20;;;12.07;;
38427;SDS011;24211;49.980;19.776;2022-10-22T07:51:20;23.63;;;12.45;;
38427;SDS011;24211;49.980;19.776;2022-10-22T07:53:48;22.27;;;12.40;;
38427;SDS011;24211;49.980;19.776;2022-10-22T07:56:16;23.17;;;12.48;;
38427;SDS011;24211;49.980;19.776;2022-10-22T07:58:43;21.98;;;12.38;;
38427;SDS011;24211;49.980;19.776;2022-10-22T08:01:10;23.25;;;12.10;;
38427;SDS011;24211;49.980;19.776;2022-10-22T08:03:38;23.67;;;12.23;;
38427;SDS011;24211;49.980;19.776;2022-10-22T08:06:05;23.08;;;11.80;;
38427;SDS011;24211;49.980;19.776;2022-10-22T08:08:33;23.02;;;11.63;;
38427;SDS011;24211;49.980;19.776;2022-10-22T08:11:00;23.73;;;12.15;;
38427;SDS011;24211;49.980;19.776;2022-10-22T08:13:27;22.13;;;12.25;;
38427;SDS011;24211;49.980;19.776;2022-10-22T08:15:58;22.15;;;11.77;;
38427;SDS011;24211;49.980;19.776;2022-10-22T08:18:27;24.63;;;12.02;;
38427;SDS011;24211;49.980;19.776;2022-10-22T08:20:55;26.80;;;12.88;;
38427;SDS011;24211;49.980;19.776;2022-10-22T08:23:23;22.08;;;12.07;;
38427;SDS011;24211;49.980;19.776;2022-10-22T08:25:55;23.15;;;12.32;;
38427;SDS011;24211;49.980;19.776;2022-10-22T08:28:22;24.02;;;12.93;;
38427;SDS011;24211;49.980;19.776;2022-10-22T08:30:50;24.67;;;12.27;;
38427;SDS011;24211;49.980;19.776;2022-10-22T08:33:17;21.30;;;12.45;;
38427;SDS011;24211;49.980;19.776;2022-10-22T08:35:48;23.27;;;12.88;;
38427;SDS011;24211;49.980;19.776;2022-10-22T08:38:17;23.80;;;13.18;;
38427;SDS011;24211;49.980;19.776;2022-10-22T08:40:48;22.45;;;12.38;;
38427;SDS011;24211;49.980;19.776;2022-10-22T08:46:25;22.60;;;12.75;;
38427;SDS011;24211;49.980;19.776;2022-10-22T08:49:08;22.03;;;11.97;;
38427;SDS011;24211;49.980;19.776;2022-10-22T08:51:46;19.98;;;11.18;;
38427;SDS011;24211;49.980;19.776;2022-10-22T08:57:26;19.33;;;10.63;;
38427;SDS011;24211;49.980;19.776;2022-10-22T09:03:17;19.67;;;10.57;;
38427;SDS011;24211;49.980;19.776;2022-10-22T09:06:26;21.55;;;10.95;;
38427;SDS011;24211;49.980;19.776;2022-10-22T09:08:58;19.00;;;9.85;;
38427;SDS011;24211;49.980;19.776;2022-10-22T09:11:32;17.17;;;9.48;;
38427;SDS011;24211;49.980;19.776;2022-10-22T09:14:04;19.48;;;10.23;;
38427;SDS011;24211;49.980;19.776;2022-10-22T09:19:05;16.20;;;8.65;;
38427;SDS011;24211;49.980;19.776;2022-10-22T09:24:58;15.02;;;8.50;;
38427;SDS011;24211;49.980;19.776;2022-10-22T09:27:49;17.58;;;9.00;;
38427;SDS011;24211;49.980;19.776;2022-10-22T09:30:25;17.60;;;8.55;;
38427;SDS011;24211;49.980;19.776;2022-10-22T09:35:33;14.98;;;8.90;;
38427;SDS011;24211;49.980;19.776;2022-10-22T09:38:18;16.90;;;8.82;;
38427;SDS011;24211;49.980;19.776;2022-10-22T09:41:05;19.67;;;10.02;;
38427;SDS011;24211;49.980;19.776;2022-10-22T09:43:34;18.30;;;9.77;;
38427;SDS011;24211;49.980;19.776;2022-10-22T09:46:04;18.17;;;9.82;;
38427;SDS011;24211;49.980;19.776;2022-10-22T09:48:40;16.15;;;9.30;;
38427;SDS011;24211;49.980;19.776;2022-10-22T09:53:55;16.85;;;8.95;;
38427;SDS011;24211;49.980;19.776;2022-10-22T09:56:35;17.98;;;10.18;;
38427;SDS011;24211;49.980;19.776;2022-10-22T09:59:15;20.55;;;10.70;;
38427;SDS011;24211;49.980;19.776;2022-10-22T10:01:45;21.40;;;10.50;;
38427;SDS011;24211;49.980;19.776;2022-10-22T10:04:13;20.45;;;10.93;;
38427;SDS011;24211;49.980;19.776;2022-10-22T10:06:42;19.58;;;11.10;;
38427;SDS011;24211;49.980;19.776;2022-10-22T10:09:28;19.55;;;11.07;;
38427;SDS011;24211;49.980;19.776;2022-10-22T10:18:09;21.17;;;11.38;;
38427;SDS011;24211;49.980;19.776;2022-10-22T10:32:16;20.23;;;10.50;;
38427;SDS011;24211;49.980;19.776;2022-10-22T10:43:49;18.60;;;8.90;;
38427;SDS011;24211;49.980;19.776;2022-10-22T10:49:36;15.18;;;8.90;;
38427;SDS011;24211;49.980;19.776;2022-10-22T10:52:11;16.83;;;8.13;;
38427;SDS011;24211;49.980;19.776;2022-10-22T11:00:25;16.70;;;9.07;;
38427;SDS011;24211;49.980;19.776;2022-10-22T11:06:11;18.05;;;8.90;;
38427;SDS011;24211;49.980;19.776;2022-10-22T11:08:57;16.88;;;8.60;;
38427;SDS011;24211;49.980;19.776;2022-10-22T11:11:40;17.38;;;8.93;;
38427;SDS011;24211;49.980;19.776;2022-10-22T11:14:16;15.80;;;8.77;;
38427;SDS011;24211;49.980;19.776;2022-10-22T11:16:58;16.58;;;8.93;;
38427;SDS011;24211;49.980;19.776;2022-10-22T11:19:55;16.60;;;8.93;;
38427;SDS011;24211;49.980;19.776;2022-10-22T11:22:52;16.55;;;8.80;;
38427;SDS011;24211;49.980;19.776;2022-10-22T11:25:48;14.90;;;8.18;;
38427;SDS011;24211;49.980;19.776;2022-10-22T11:28:18;15.38;;;8.07;;
38427;SDS011;24211;49.980;19.776;2022-10-22T11:31:01;14.52;;;7.65;;
38427;SDS011;24211;49.980;19.776;2022-10-22T11:33:41;15.45;;;7.90;;
38427;SDS011;24211;49.980;19.776;2022-10-22T11:36:14;14.80;;;8.30;;
38427;SDS011;24211;49.980;19.776;2022-10-22T11:38:47;15.00;;;7.97;;
38427;SDS011;24211;49.980;19.776;2022-10-22T11:41:16;16.35;;;8.18;;
38427;SDS011;24211;49.980;19.776;2022-10-22T11:44:18;15.18;;;8.10;;
38427;SDS011;24211;49.980;19.776;2022-10-22T11:46:55;16.77;;;8.77;;
38427;SDS011;24211;49.980;19.776;2022-10-22T11:49:43;16.95;;;8.63;;
38427;SDS011;24211;49.980;19.776;2022-10-22T11:52:23;15.45;;;8.10;;
38427;SDS011;24211;49.980;19.776;2022-10-22T11:58:30;17.60;;;9.10;;
38427;SDS011;24211;49.980;19.776;2022-10-22T12:11:19;15.20;;;8.20;;
38427;SDS011;24211;49.980;19.776;2022-10-22T12:14:16;16.52;;;8.63;;
38427;SDS011;24211;49.980;19.776;2022-10-22T12:17:09;16.00;;;8.77;;
38427;SDS011;24211;49.980;19.776;2022-10-22T12:19:47;16.17;;;9.02;;
38427;SDS011;24211;49.980;19.776;2022-10-22T12:22:29;16.95;;;8.93;;
38427;SDS011;24211;49.980;19.776;2022-10-22T12:25:17;19.02;;;9.27;;
38427;SDS011;24211;49.980;19.776;2022-10-22T12:27:53;16.50;;;8.35;;
38427;SDS011;24211;49.980;19.776;2022-10-22T12:30:25;16.75;;;9.23;;
38427;SDS011;24211;49.980;19.776;2022-10-22T12:32:57;16.48;;;8.63;;
38427;SDS011;24211;49.980;19.776;2022-10-22T12:35:30;15.27;;;8.80;;
38427;SDS011;24211;49.980;19.776;2022-10-22T12:38:10;18.55;;;9.60;;
38427;SDS011;24211;49.980;19.776;2022-10-22T12:40:46;17.90;;;9.35;;
38427;SDS011;24211;49.980;19.776;2022-10-22T12:45:55;19.60;;;10.05;;
38427;SDS011;24211;49.980;19.776;2022-10-22T12:48:36;17.10;;;9.20;;
38427;SDS011;24211;49.980;19.776;2022-10-22T12:51:08;18.35;;;10.15;;
38427;SDS011;24211;49.980;19.776;2022-10-22T12:53:47;17.35;;;9.68;;
38427;SDS011;24211;49.980;19.776;2022-10-22T12:56:23;19.65;;;9.95;;
38427;SDS011;24211;49.980;19.776;2022-10-22T12:58:59;21.35;;;10.13;;
38427;SDS011;24211;49.980;19.776;2022-10-22T13:01:41;19.38;;;10.43;;
38427;SDS011;24211;49.980;19.776;2022-10-22T13:06:49;20.67;;;10.18;;
38427;SDS011;24211;49.980;19.776;2022-10-22T13:09:40;19.60;;;9.95;;
38427;SDS011;24211;49.980;19.776;2022-10-22T13:12:26;20.00;;;10.48;;
38427;SDS011;24211;49.980;19.776;2022-10-22T13:15:21;22.00;;;10.48;;
38427;SDS011;24211;49.980;19.776;2022-10-22T13:18:03;19.25;;;10.25;;
38427;SDS011;24211;49.980;19.776;2022-10-22T13:20:33;18.65;;;9.82;;
38427;SDS011;24211;49.980;19.776;2022-10-22T13:23:04;18.92;;;9.45;;
38427;SDS011;24211;49.980;19.776;2022-10-22T13:25:32;19.83;;;10.00;;
38427;SDS011;24211;49.980;19.776;2022-10-22T13:28:15;19.55;;;9.65;;
38427;SDS011;24211;49.980;19.776;2022-10-22T13:30:51;16.73;;;9.60;;
38427;SDS011;24211;49.980;19.776;2022-10-22T13:33:36;20.63;;;10.07;;
38427;SDS011;24211;49.980;19.776;2022-10-22T13:36:08;17.42;;;9.52;;
38427;SDS011;24211;49.980;19.776;2022-10-22T13:38:42;16.85;;;9.55;;
38427;SDS011;24211;49.980;19.776;2022-10-22T13:41:21;17.33;;;9.57;;
38427;SDS011;24211;49.980;19.776;2022-10-22T13:43:52;17.77;;;9.63;;
38427;SDS011;24211;49.980;19.776;2022-10-22T13:46:20;20.75;;;10.98;;
38427;SDS011;24211;49.980;19.776;2022-10-22T13:48:50;20.60;;;10.35;;
38427;SDS011;24211;49.980;19.776;2022-10-22T13:51:22;19.33;;;10.05;;
38427;SDS011;24211;49.980;19.776;2022-10-22T13:53:55;19.92;;;10.20;;
38427;SDS011;24211;49.980;19.776;2022-10-22T13:56:22;20.45;;;10.50;;
38427;SDS011;24211;49.980;19.776;2022-10-22T13:58:50;22.02;;;11.25;;
38427;SDS011;24211;49.980;19.776;2022-10-22T14:03:54;19.63;;;10.00;;
38427;SDS011;24211;49.980;19.776;2022-10-22T14:06:25;18.27;;;10.27;;
38427;SDS011;24211;49.980;19.776;2022-10-22T14:08:58;20.83;;;11.27;;
38427;SDS011;24211;49.980;19.776;2022-10-22T14:11:30;19.65;;;10.00;;
38427;SDS011;24211;49.980;19.776;2022-10-22T14:13:58;19.08;;;9.88;;
38427;SDS011;24211;49.980;19.776;2022-10-22T14:16:26;19.42;;;10.32;;
38427;SDS011;24211;49.980;19.776;2022-10-22T14:18:56;19.95;;;10.70;;
38427;SDS011;24211;49.980;19.776;2022-10-22T14:21:33;21.63;;;11.05;;
38427;SDS011;24211;49.980;19.776;2022-10-22T14:24:03;21.13;;;10.88;;
38427;SDS011;24211;49.980;19.776;2022-10-22T14:26:36;19.42;;;10.60;;
38427;SDS011;24211;49.980;19.776;2022-10-22T14:29:03;20.73;;;11.10;;
38427;SDS011;24211;49.980;19.776;2022-10-22T14:31:36;19.13;;;10.25;;
38427;SDS011;24211;49.980;19.776;2022-10-22T14:34:10;19.50;;;10.90;;
38427;SDS011;24211;49.980;19.776;2022-10-22T14:36:40;20.02;;;10.07;;
38427;SDS011;24211;49.980;19.776;2022-10-22T14:39:10;19.70;;;10.70;;
38427;SDS011;24211;49.980;19.776;2022-10-22T14:41:38;21.08;;;10.60;;
38427;SDS011;24211;49.980;19.776;2022-10-22T14:44:08;25.00;;;13.48;;
38427;SDS011;24211;49.980;19.776;2022-10-22T14:49:09;25.05;;;12.30;;
38427;SDS011;24211;49.980;19.776;2022-10-22T14:51:36;27.60;;;13.95;;
38427;SDS011;24211;49.980;19.776;2022-10-22T14:54:04;24.50;;;12.90;;
38427;SDS011;24211;49.980;19.776;2022-10-22T14:56:31;22.73;;;12.68;;
38427;SDS011;24211;49.980;19.776;2022-10-22T14:58:58;21.25;;;11.65;;
38427;SDS011;24211;49.980;19.776;2022-10-22T15:01:26;22.60;;;11.85;;
38427;SDS011;24211;49.980;19.776;2022-10-22T15:03:54;21.45;;;12.60;;
38427;SDS011;24211;49.980;19.776;2022-10-22T15:06:21;23.77;;;12.82;;
38427;SDS011;24211;49.980;19.776;2022-10-22T15:08:48;24.35;;;12.95;;
38427;SDS011;24211;49.980;19.776;2022-10-22T15:11:16;28.08;;;14.63;;
38427;SDS011;24211;49.980;19.776;2022-10-22T15:13:43;24.92;;;13.73;;
38427;SDS011;24211;49.980;19.776;2022-10-22T15:16:11;26.42;;;13.65;;
38427;SDS011;24211;49.980;19.776;2022-10-22T15:18:41;24.75;;;13.55;;
38427;SDS011;24211;49.980;19.776;2022-10-22T15:21:12;26.73;;;14.45;;
38427;SDS011;24211;49.980;19.776;2022-10-22T15:23:44;26.60;;;13.70;;
38427;SDS011;24211;49.980;19.776;2022-10-22T15:26:11;26.35;;;14.23;;
38427;SDS011;24211;49.980;19.776;2022-10-22T15:28:39;30.85;;;15.30;;
38427;SDS011;24211;49.980;19.776;2022-10-22T15:31:09;28.38;;;14.88;;
38427;SDS011;24211;49.980;19.776;2022-10-22T15:33:40;31.02;;;16.23;;
38427;SDS011;24211;49.980;19.776;2022-10-22T15:36:13;28.15;;;14.70;;
38427;SDS011;24211;49.980;19.776;2022-10-22T15:38:42;28.75;;;15.43;;
38427;SDS011;24211;49.980;19.776;2022-10-22T15:41:10;26.85;;;14.43;;
38427;SDS011;24211;49.980;19.776;2022-10-22T15:43:39;26.15;;;13.55;;
38427;SDS011;24211;49.980;19.776;2022-10-22T15:46:10;24.52;;;13.30;;
38427;SDS011;24211;49.980;19.776;2022-10-22T15:48:41;29.15;;;14.38;;
38427;SDS011;24211;49.980;19.776;2022-10-22T15:51:09;22.92;;;13.23;;
38427;SDS011;24211;49.980;19.776;2022-10-22T15:53:43;25.23;;;13.32;;
38427;SDS011;24211;49.980;19.776;2022-10-22T15:56:18;26.42;;;13.80;;
38427;SDS011;24211;49.980;19.776;2022-10-22T15:58:45;24.45;;;14.13;;
38427;SDS011;24211;49.980;19.776;2022-10-22T16:01:13;25.92;;;14.88;;
38427;SDS011;24211;49.980;19.776;2022-10-22T16:03:40;25.05;;;13.40;;
38427;SDS011;24211;49.980;19.776;2022-10-22T16:06:07;25.25;;;13.88;;
38427;SDS011;24211;49.980;19.776;2022-10-22T16:08:35;26.02;;;13.00;;
38427;SDS011;24211;49.980;19.776;2022-10-22T16:11:03;27.38;;;14.65;;
38427;SDS011;24211;49.980;19.776;2022-10-22T16:13:31;26.23;;;13.75;;
38427;SDS011;24211;49.980;19.776;2022-10-22T16:16:02;23.15;;;13.18;;
38427;SDS011;24211;49.980;19.776;2022-10-22T16:18:32;24.63;;;13.85;;
38427;SDS011;24211;49.980;19.776;2022-10-22T16:20:59;29.13;;;14.75;;
38427;SDS011;24211;49.980;19.776;2022-10-22T16:23:28;26.08;;;14.88;;
38427;SDS011;24211;49.980;19.776;2022-10-22T16:25:59;29.65;;;15.25;;